Time;durP1;ratioP1;P1;durP2;ratioP2;P2;SDS_P1;SDS_P2;PMS_P1;PMS_P2;Temp;Humidity;BMP_temperature;BMP_pressure;BME280_temperature;BME280_humidity;BME280_pressure;Samples;Min_cycle;Max_cycle;Signal;HPM_P1;HPM_P2
2022/07/07 00:02:09;;;;;;;1.43;1.00;;;18.80;1.00;;;;;;5027495;28;20192;-61
2022/07/07 00:04:34;;;;;;;3.00;1.40;;;18.90;1.00;;;;;;5027624;28;20196;-59
2022/07/07 00:07:00;;;;;;;2.90;1.07;;;18.80;1.00;;;;;;5029989;28;20192;-60
2022/07/07 00:09:27;;;;;;;3.53;1.27;;;18.80;1.00;;;;;;5030992;28;20212;-60
2022/07/07 00:11:53;;;;;;;2.13;0.90;;;18.70;1.00;;;;;;5046315;28;20233;-60
2022/07/07 00:14:18;;;;;;;4.73;1.20;;;18.90;1.00;;;;;;5036397;28;20516;-61
2022/07/07 00:16:44;;;;;;;1.13;0.93;;;18.80;1.00;;;;;;5031126;28;20881;-59
2022/07/07 00:19:09;;;;;;;1.17;0.93;;;18.80;1.00;;;;;;5030660;28;20208;-60
2022/07/07 00:21:35;;;;;;;3.60;1.00;;;18.70;1.00;;;;;;5028589;28;20646;-60
2022/07/07 00:24:01;;;;;;;1.80;1.00;;;18.90;1.00;;;;;;5030361;28;20681;-60
2022/07/07 00:26:30;;;;;;;1.67;1.10;;;18.70;1.00;;;;;;5031278;28;20693;-59
2022/07/07 00:28:55;;;;;;;7.03;1.60;;;18.60;1.00;;;;;;5024750;28;20182;-60
2022/07/07 00:31:21;;;;;;;1.67;1.10;;;18.60;1.00;;;;;;5025576;28;20838;-58
2022/07/07 00:33:46;;;;;;;1.10;0.90;;;17.30;1.00;;;;;;5026366;28;20196;-60
2022/07/07 00:36:12;;;;;;;1.87;1.03;;;18.50;1.00;;;;;;5027648;28;20220;-60
2022/07/07 00:38:38;;;;;;;2.47;1.23;;;18.40;1.00;;;;;;5029258;28;20685;-59
2022/07/07 00:41:07;;;;;;;2.10;1.20;;;18.40;1.00;;;;;;5031659;28;20192;-59
2022/07/07 00:43:41;;;;;;;2.87;1.00;;;18.40;1.00;;;;;;5030405;28;20196;-60
2022/07/07 00:46:07;;;;;;;2.00;1.10;;;18.30;1.00;;;;;;5029274;28;20454;-59
2022/07/07 00:48:35;;;;;;;4.10;1.23;;;18.30;1.00;;;;;;5028163;28;20498;-59
2022/07/07 00:51:01;;;;;;;1.83;1.23;;;18.30;1.00;;;;;;5026303;28;20479;-60
2022/07/07 00:53:26;;;;;;;4.33;1.80;;;18.20;1.00;;;;;;5025302;28;20484;-60
2022/07/07 00:55:52;;;;;;;4.67;1.70;;;18.20;1.00;;;;;;5030662;28;20200;-60
2022/07/07 00:58:17;;;;;;;3.30;1.77;;;18.10;1.00;;;;;;5029623;28;20208;-58
2022/07/07 01:00:43;;;;;;;2.40;1.60;;;18.10;1.00;;;;;;5026557;28;20586;-60
2022/07/07 01:03:09;;;;;;;2.30;1.30;;;18.00;1.00;;;;;;5028167;28;20188;-59
2022/07/07 01:05:36;;;;;;;2.60;1.63;;;18.00;1.00;;;;;;5030817;28;20204;-59
2022/07/07 01:08:03;;;;;;;2.50;1.50;;;17.90;1.00;;;;;;5041854;28;20952;-59
2022/07/07 01:10:30;;;;;;;2.60;1.50;;;17.80;1.00;;;;;;5044055;28;20478;-60
2022/07/07 01:12:56;;;;;;;2.30;1.60;;;17.80;1.00;;;;;;5042113;28;20430;-59
2022/07/07 01:15:21;;;;;;;2.57;1.77;;;17.70;1.00;;;;;;5028954;28;20455;-59
2022/07/07 01:17:47;;;;;;;2.10;1.90;;;17.70;1.00;;;;;;5029877;28;21029;-60
2022/07/07 01:20:13;;;;;;;1.60;1.17;;;17.60;1.00;;;;;;5028305;28;20200;-60
2022/07/07 01:22:47;;;;;;;2.60;1.43;;;17.50;1.00;;;;;;5027269;28;20196;-59
2022/07/07 01:25:13;;;;;;;2.20;1.70;;;17.50;1.00;;;;;;5025088;28;20440;-60
2022/07/07 01:27:39;;;;;;;4.50;1.53;;;17.40;1.00;;;;;;5047121;28;20430;-60
2022/07/07 01:30:05;;;;;;;3.20;1.40;;;17.50;1.00;;;;;;5027939;28;20200;-60
2022/07/07 01:32:31;;;;;;;4.40;1.83;;;17.40;1.00;;;;;;5028837;28;20713;-60
2022/07/07 01:34:56;;;;;;;2.23;1.30;;;17.40;1.00;;;;;;5030249;28;20430;-60
2022/07/07 01:37:24;;;;;;;2.17;1.40;;;17.40;1.00;;;;;;5029008;28;20259;-60
2022/07/07 01:39:51;;;;;;;1.53;1.07;;;17.50;1.00;;;;;;5029167;28;20196;-61
2022/07/07 01:42:16;;;;;;;3.50;1.50;;;17.50;1.00;;;;;;5030000;28;20443;-59
2022/07/07 01:44:43;;;;;;;3.67;1.37;;;17.60;1.00;;;;;;5028270;28;20464;-60
2022/07/07 01:47:11;;;;;;;4.30;1.93;;;17.50;1.00;;;;;;5029285;28;20212;-59
2022/07/07 01:49:37;;;;;;;3.50;1.80;;;17.50;1.00;;;;;;5028140;28;20841;-59
2022/07/07 01:52:04;;;;;;;3.10;1.63;;;17.50;1.00;;;;;;5028895;28;20459;-60
2022/07/07 01:54:31;;;;;;;2.20;1.70;;;17.50;1.00;;;;;;5025695;28;20821;-60
2022/07/07 01:56:57;;;;;;;3.63;1.57;;;17.50;1.00;;;;;;5024345;28;20459;-60
2022/07/07 01:59:23;;;;;;;2.43;1.83;;;17.40;1.00;;;;;;5028621;28;20534;-59
2022/07/07 02:01:49;;;;;;;2.00;1.80;;;17.40;1.00;;;;;;5023773;28;20656;-60
2022/07/07 02:04:15;;;;;;;4.43;1.50;;;17.50;1.00;;;;;;5027678;28;20188;-60
2022/07/07 02:06:41;;;;;;;2.20;1.50;;;17.40;1.00;;;;;;5024202;28;20188;-60
2022/07/07 02:09:07;;;;;;;3.10;1.50;;;17.30;1.00;;;;;;5028321;28;20991;-59
2022/07/07 02:11:33;;;;;;;5.73;1.43;;;17.40;1.00;;;;;;5029345;28;20558;-61
2022/07/07 02:14:00;;;;;;;4.90;2.03;;;17.40;1.00;;;;;;5031391;28;20427;-59
2022/07/07 02:16:26;;;;;;;2.90;1.70;;;17.40;1.00;;;;;;5031323;28;20446;-60
2022/07/07 02:19:00;;;;;;;1.60;1.50;;;17.40;1.00;;;;;;5029902;28;20546;-60
2022/07/07 02:21:26;;;;;;;3.30;1.53;;;17.40;1.00;;;;;;5031336;28;20453;-60
2022/07/07 02:23:54;;;;;;;2.63;1.50;;;17.40;1.00;;;;;;5032691;28;20777;-61
2022/07/07 02:26:19;;;;;;;3.23;1.47;;;17.30;1.00;;;;;;5031137;28;20451;-59
2022/07/07 02:28:45;;;;;;;3.73;1.50;;;17.30;1.00;;;;;;5030516;28;20455;-59
2022/07/07 02:31:11;;;;;;;2.50;1.47;;;17.20;1.00;;;;;;5033640;28;20710;-59
2022/07/07 02:33:37;;;;;;;1.87;1.77;;;17.20;1.00;;;;;;5032652;28;20195;-60
2022/07/07 02:36:06;;;;;;;2.83;1.80;;;17.20;1.00;;;;;;5032608;28;20439;-60
2022/07/07 02:38:32;;;;;;;2.10;1.20;;;17.20;1.00;;;;;;5026821;28;20227;-60
2022/07/07 02:40:58;;;;;;;3.70;1.87;;;17.20;1.00;;;;;;5030274;28;20539;-61
2022/07/07 02:43:24;;;;;;;1.60;1.50;;;17.30;1.00;;;;;;5032251;28;20859;-60
2022/07/07 02:45:51;;;;;;;2.20;1.60;;;17.30;1.00;;;;;;5030606;28;20184;-59
2022/07/07 02:48:18;;;;;;;1.90;1.73;;;17.20;1.00;;;;;;5031209;28;20535;-60
2022/07/07 02:50:44;;;;;;;2.23;1.50;;;17.30;1.00;;;;;;5031368;28;20801;-60
2022/07/07 02:53:11;;;;;;;3.13;1.37;;;17.40;1.00;;;;;;5033023;28;20447;-59
2022/07/07 02:55:37;;;;;;;3.30;1.73;;;17.40;1.00;;;;;;5030276;28;20177;-61
2022/07/07 02:58:04;;;;;;;2.03;1.70;;;17.40;1.00;;;;;;5031632;28;20510;-60
2022/07/07 03:00:33;;;;;;;2.07;1.50;;;17.40;1.00;;;;;;5031168;28;20454;-60
2022/07/07 03:03:00;;;;;;;3.40;1.07;;;17.40;1.00;;;;;;5030313;28;20439;-60
2022/07/07 03:05:27;;;;;;;2.40;1.50;;;17.50;1.00;;;;;;5028775;28;20443;-60
2022/07/07 03:07:53;;;;;;;2.80;1.60;;;17.50;1.00;;;;;;5031516;28;20948;-60
2022/07/07 03:10:18;;;;;;;2.23;1.27;;;17.50;1.00;;;;;;5032108;28;20423;-59
2022/07/07 03:12:44;;;;;;;2.67;1.70;;;17.50;1.00;;;;;;5032752;28;20665;-59
2022/07/07 03:15:10;;;;;;;2.50;1.40;;;17.50;1.00;;;;;;5028661;28;20227;-60
2022/07/07 03:17:40;;;;;;;1.73;1.33;;;17.50;1.00;;;;;;5027613;28;20216;-59
2022/07/07 03:20:07;;;;;;;1.90;1.77;;;17.50;1.00;;;;;;5029558;28;20450;-58
2022/07/07 03:22:32;;;;;;;2.17;1.67;;;17.60;1.00;;;;;;5028192;28;20766;-60
2022/07/07 03:24:58;;;;;;;1.90;1.30;;;17.50;1.00;;;;;;5027804;28;20482;-60
2022/07/07 03:27:23;;;;;;;2.50;1.63;;;17.40;1.00;;;;;;5023390;28;20219;-60
2022/07/07 03:29:51;;;;;;;1.70;1.60;;;17.40;1.00;;;;;;5022758;28;20191;-59
2022/07/07 03:32:16;;;;;;;1.63;1.53;;;17.40;1.00;;;;;;5031249;28;20232;-58
2022/07/07 03:34:42;;;;;;;2.10;1.30;;;17.30;1.00;;;;;;5029548;28;20448;-58
2022/07/07 03:37:07;;;;;;;2.10;1.50;;;17.30;1.00;;;;;;5027013;28;20254;-60
2022/07/07 03:39:33;;;;;;;3.03;1.63;;;17.40;1.00;;;;;;5032077;28;20223;-60
2022/07/07 03:41:59;;;;;;;1.70;1.60;;;17.40;1.00;;;;;;5031679;28;20218;-60
2022/07/07 03:44:25;;;;;;;3.37;1.70;;;17.40;1.00;;;;;;5031380;28;20189;-59
2022/07/07 03:46:51;;;;;;;1.63;1.40;;;17.40;1.00;;;;;;5029712;28;20184;-60
2022/07/07 03:49:16;;;;;;;4.07;1.60;;;17.50;1.00;;;;;;5030214;28;20908;-60
2022/07/07 03:51:42;;;;;;;2.53;1.30;;;17.50;1.00;;;;;;5026039;28;20185;-60
2022/07/07 03:54:07;;;;;;;1.50;1.40;;;17.50;1.00;;;;;;5031176;28;20383;-60
2022/07/07 03:56:33;;;;;;;1.63;1.53;;;17.50;1.00;;;;;;5026377;28;20591;-60
2022/07/07 03:58:59;;;;;;;4.43;1.50;;;17.50;1.00;;;;;;5029295;28;20216;-60
2022/07/07 04:01:24;;;;;;;1.80;1.47;;;17.50;1.00;;;;;;5027758;28;20562;-58
2022/07/07 04:03:50;;;;;;;1.83;1.50;;;17.50;1.00;;;;;;5030823;28;20192;-61
2022/07/07 04:06:16;;;;;;;2.33;1.37;;;17.60;1.00;;;;;;5028992;28;20335;-64
2022/07/07 04:08:41;;;;;;;2.77;1.70;;;17.70;1.00;;;;;;5028865;28;20200;-64
2022/07/07 04:11:07;;;;;;;2.27;1.80;;;17.70;1.00;;;;;;5029796;28;20189;-63
2022/07/07 04:13:33;;;;;;;2.53;1.60;;;17.60;1.00;;;;;;5030836;28;20216;-64
2022/07/07 04:15:58;;;;;;;2.33;1.73;;;17.60;1.00;;;;;;5029524;28;20547;-64
2022/07/07 04:18:24;;;;;;;1.90;1.80;;;17.80;1.00;;;;;;5029517;28;20471;-63
2022/07/07 04:20:50;;;;;;;4.17;1.73;;;17.70;1.00;;;;;;5030840;28;20189;-64
2022/07/07 04:23:16;;;;;;;2.50;1.50;;;17.70;1.00;;;;;;5034845;28;21382;-64
2022/07/07 04:25:42;;;;;;;3.00;1.80;;;17.40;1.00;;;;;;5027439;28;20185;-62
2022/07/07 04:28:07;;;;;;;3.20;1.90;;;17.30;1.00;;;;;;5027269;28;20201;-63
2022/07/07 04:30:33;;;;;;;1.40;1.30;;;17.20;1.00;;;;;;5030093;28;20420;-63
2022/07/07 04:32:59;;;;;;;6.13;1.53;;;17.20;1.00;;;;;;5031618;28;20272;-63
2022/07/07 04:35:25;;;;;;;2.30;1.70;;;17.20;1.00;;;;;;5038654;28;20263;-59
2022/07/07 04:37:51;;;;;;;2.20;1.60;;;17.20;1.00;;;;;;5027651;28;20657;-60
2022/07/07 04:40:16;;;;;;;3.83;1.90;;;17.10;1.00;;;;;;5028370;28;20527;-59
2022/07/07 04:42:42;;;;;;;1.90;1.50;;;16.90;1.00;;;;;;5029009;28;20189;-60
2022/07/07 04:45:08;;;;;;;1.80;1.70;;;16.90;1.00;;;;;;5028309;28;20443;-60
2022/07/07 04:47:42;;;;;;;5.20;2.43;;;17.00;1.00;;;;;;5029495;28;20184;-60
2022/07/07 04:50:12;;;;;;;2.80;1.63;;;17.10;1.00;;;;;;5035352;28;20469;-59
2022/07/07 04:52:38;;;;;;;3.77;1.60;;;17.00;1.00;;;;;;5021965;28;20443;-60
2022/07/07 04:55:04;;;;;;;2.70;1.63;;;17.30;1.00;;;;;;5031241;28;20450;-60
2022/07/07 04:57:30;;;;;;;3.40;1.60;;;17.20;1.00;;;;;;5038511;28;20459;-59
2022/07/07 04:59:56;;;;;;;2.03;1.60;;;17.30;1.00;;;;;;5028148;28;20447;-59
2022/07/07 05:02:21;;;;;;;1.60;1.50;;;17.30;1.00;;;;;;5030785;28;20442;-60
2022/07/07 05:04:49;;;;;;;2.30;1.70;;;17.20;1.00;;;;;;5042826;28;20524;-60
2022/07/07 05:07:15;;;;;;;3.10;1.60;;;17.30;1.00;;;;;;5030116;28;20192;-59
2022/07/07 05:09:40;;;;;;;2.47;1.97;;;17.40;1.00;;;;;;5028886;28;20959;-60
2022/07/07 05:12:06;;;;;;;2.60;1.57;;;17.40;1.00;;;;;;5031417;28;20459;-60
2022/07/07 05:14:32;;;;;;;3.13;1.70;;;17.40;1.00;;;;;;5029558;28;20707;-61
2022/07/07 05:16:59;;;;;;;2.63;1.73;;;17.40;1.00;;;;;;5028918;28;20531;-60
2022/07/07 05:19:25;;;;;;;3.70;1.90;;;17.40;1.00;;;;;;5028954;28;20331;-59
2022/07/07 05:21:51;;;;;;;5.70;1.63;;;17.20;1.00;;;;;;5029249;28;20523;-61
2022/07/07 05:24:17;;;;;;;1.77;1.57;;;17.60;1.00;;;;;;5034823;28;20470;-60
2022/07/07 05:26:42;;;;;;;3.83;1.93;;;17.60;1.00;;;;;;5028859;28;20192;-58
2022/07/07 05:29:08;;;;;;;3.13;2.20;;;17.60;1.00;;;;;;5030147;28;20180;-59
2022/07/07 05:31:33;;;;;;;3.30;2.07;;;17.60;1.00;;;;;;5030775;28;20674;-60
2022/07/07 05:33:59;;;;;;;1.90;1.80;;;17.50;1.00;;;;;;5032562;28;20172;-59
2022/07/07 05:36:24;;;;;;;2.63;1.90;;;17.60;1.00;;;;;;5031226;28;20348;-59
2022/07/07 05:38:50;;;;;;;4.63;2.13;;;17.60;1.00;;;;;;5030024;28;20237;-59
2022/07/07 05:41:16;;;;;;;2.90;1.67;;;17.60;1.00;;;;;;5030266;28;20183;-58
2022/07/07 05:43:42;;;;;;;2.47;2.10;;;17.60;1.00;;;;;;5030539;28;20474;-60
2022/07/07 05:46:08;;;;;;;5.10;3.60;;;17.80;1.00;;;;;;5030936;28;20439;-59
2022/07/07 05:48:33;;;;;;;3.67;2.00;;;17.80;1.00;;;;;;5029624;28;20193;-59
2022/07/07 05:50:59;;;;;;;6.43;3.27;;;17.90;1.00;;;;;;5029978;28;20188;-59
2022/07/07 05:53:24;;;;;;;4.77;2.43;;;18.00;1.00;;;;;;5041577;28;20263;-58
2022/07/07 05:55:50;;;;;;;3.53;1.70;;;18.10;1.00;;;;;;5032247;28;20276;-58
2022/07/07 05:58:16;;;;;;;4.53;1.80;;;18.20;1.00;;;;;;5029746;28;20211;-59
2022/07/07 06:00:41;;;;;;;2.10;1.70;;;18.30;1.00;;;;;;5029493;28;20181;-59
2022/07/07 06:03:07;;;;;;;5.00;2.03;;;18.20;1.00;;;;;;5030043;28;20203;-59
2022/07/07 06:05:33;;;;;;;4.10;2.20;;;18.20;1.00;;;;;;5031930;28;20203;-60
2022/07/07 06:07:58;;;;;;;4.30;2.00;;;18.20;1.00;;;;;;5029727;28;20185;-58
2022/07/07 06:10:24;;;;;;;5.37;2.27;;;18.00;1.00;;;;;;5028272;28;20193;-59
2022/07/07 06:12:49;;;;;;;3.57;2.23;;;18.00;1.00;;;;;;5031938;28;20181;-60
2022/07/07 06:15:17;;;;;;;1.97;1.70;;;18.10;1.00;;;;;;5029926;28;20191;-60
2022/07/07 06:17:43;;;;;;;2.87;1.80;;;18.10;1.00;;;;;;5029569;28;20811;-59
2022/07/07 06:20:09;;;;;;;4.97;2.00;;;18.10;1.00;;;;;;5029639;28;20515;-59
2022/07/07 06:22:35;;;;;;;2.40;1.97;;;18.00;1.00;;;;;;5029842;28;20173;-60
2022/07/07 06:25:01;;;;;;;11.80;2.60;;;18.10;1.00;;;;;;5030093;28;20961;-59
2022/07/07 06:27:26;;;;;;;1.83;1.70;;;18.20;1.00;;;;;;5029689;28;20435;-59
2022/07/07 06:29:55;;;;;;;6.37;1.90;;;18.20;1.00;;;;;;5030237;28;20650;-59
2022/07/07 06:32:21;;;;;;;2.33;1.70;;;18.10;1.00;;;;;;5031000;28;20670;-59
2022/07/07 06:34:47;;;;;;;4.47;1.80;;;18.30;1.00;;;;;;5029755;28;20987;-59
2022/07/07 06:37:12;;;;;;;3.03;1.87;;;18.50;1.00;;;;;;5029629;28;20471;-60
2022/07/07 06:39:38;;;;;;;2.50;1.57;;;18.40;1.00;;;;;;5030075;28;20201;-60
2022/07/07 06:42:04;;;;;;;3.80;2.37;;;18.40;1.00;;;;;;5029472;28;20177;-59
2022/07/07 06:44:32;;;;;;;2.63;1.80;;;18.50;1.00;;;;;;5030590;28;20693;-59
2022/07/07 06:46:59;;;;;;;2.60;2.03;;;18.60;1.00;;;;;;5028164;28;20443;-59
2022/07/07 06:49:25;;;;;;;2.70;2.13;;;18.80;1.00;;;;;;5029460;28;20434;-60
2022/07/07 06:51:51;;;;;;;2.20;1.43;;;19.00;1.00;;;;;;5029429;28;20443;-59
2022/07/07 06:54:17;;;;;;;3.90;1.70;;;19.20;1.00;;;;;;5029597;28;20459;-58
2022/07/07 06:56:43;;;;;;;2.47;1.57;;;19.40;1.00;;;;;;5030566;28;20443;-59
2022/07/07 06:59:08;;;;;;;2.90;2.10;;;19.60;1.00;;;;;;5030101;28;20212;-60
2022/07/07 07:01:34;;;;;;;2.97;2.20;;;19.60;1.00;;;;;;5033090;28;20188;-59
2022/07/07 07:04:00;;;;;;;3.37;2.07;;;19.70;1.00;;;;;;5032860;28;20550;-60
2022/07/07 07:06:28;;;;;;;2.87;2.30;;;19.80;1.00;;;;;;5033169;28;20185;-60
2022/07/07 07:08:57;;;;;;;3.13;2.13;;;19.70;1.00;;;;;;5032848;28;20197;-60
2022/07/07 07:11:22;;;;;;;4.87;2.40;;;19.80;1.00;;;;;;5045327;28;20474;-59
2022/07/07 07:13:49;;;;;;;3.40;2.30;;;19.90;1.00;;;;;;5053065;28;20489;-59
2022/07/07 07:16:18;;;;;;;5.37;2.10;;;19.90;1.00;;;;;;5039735;28;20200;-59
2022/07/07 07:18:44;;;;;;;4.50;1.93;;;20.20;1.00;;;;;;5032814;28;20474;-59
2022/07/07 07:21:11;;;;;;;4.00;2.30;;;20.20;1.00;;;;;;5032827;28;20944;-59
2022/07/07 07:23:37;;;;;;;2.50;1.80;;;20.20;1.00;;;;;;5032831;28;20932;-61
2022/07/07 07:26:07;;;;;;;3.70;2.10;;;20.60;1.00;;;;;;5032623;28;20439;-60
2022/07/07 07:28:33;;;;;;;2.60;1.67;;;20.20;1.00;;;;;;5037001;28;20574;-59
2022/07/07 07:31:00;;;;;;;2.83;1.87;;;20.20;1.00;;;;;;5037991;28;20470;-60
2022/07/07 07:33:26;;;;;;;2.60;2.17;;;19.90;1.00;;;;;;5035436;28;20474;-60
2022/07/07 07:35:52;;;;;;;2.23;1.90;;;19.60;1.00;;;;;;5044679;28;20438;-60
2022/07/07 07:38:18;;;;;;;3.00;1.77;;;19.40;1.00;;;;;;5052342;28;20469;-60
2022/07/07 07:40:43;;;;;;;3.97;2.00;;;19.20;1.00;;;;;;5052091;28;20180;-60
2022/07/07 07:43:09;;;;;;;10.53;3.10;;;19.00;1.00;;;;;;5050941;28;20183;-60
2022/07/07 07:45:35;;;;;;;3.13;1.93;;;19.10;1.00;;;;;;5052367;28;20180;-60
2022/07/07 07:48:03;;;;;;;5.80;2.53;;;19.00;1.00;;;;;;5052090;28;20309;-60
2022/07/07 07:50:29;;;;;;;4.67;1.90;;;19.10;1.00;;;;;;5051890;28;20780;-61
2022/07/07 07:52:55;;;;;;;3.77;1.80;;;19.10;1.00;;;;;;5052225;28;20427;-59
2022/07/07 07:55:21;;;;;;;14.70;2.13;;;19.20;1.00;;;;;;5051773;28;20473;-59
2022/07/07 07:57:47;;;;;;;2.63;1.90;;;19.20;1.00;;;;;;5052296;28;20831;-59
2022/07/07 08:00:16;;;;;;;1.93;1.80;;;19.30;1.00;;;;;;5051883;28;20442;-59
2022/07/07 08:02:42;;;;;;;3.30;2.60;;;19.50;1.00;;;;;;5047773;28;20441;-60
2022/07/07 08:05:10;;;;;;;2.63;2.00;;;19.70;1.00;;;;;;5031784;28;20443;-59
2022/07/07 08:07:37;;;;;;;2.57;2.37;;;20.00;1.00;;;;;;5031547;28;20447;-60
2022/07/07 08:10:03;;;;;;;2.03;1.90;;;20.10;1.00;;;;;;5031741;28;20439;-59
2022/07/07 08:12:29;;;;;;;3.20;2.47;;;20.00;1.00;;;;;;5032859;28;20953;-59
2022/07/07 08:14:55;;;;;;;6.07;3.20;;;20.00;1.00;;;;;;5051446;28;20431;-59
2022/07/07 08:17:21;;;;;;;6.07;2.30;;;19.90;1.00;;;;;;5051691;28;20192;-59
2022/07/07 08:19:47;;;;;;;12.17;2.80;;;19.80;1.00;;;;;;5051689;28;20450;-59
2022/07/07 08:22:13;;;;;;;5.47;2.60;;;19.50;1.00;;;;;;5051522;28;20507;-60
2022/07/07 08:24:39;;;;;;;6.23;3.10;;;19.40;1.00;;;;;;5051334;28;20177;-59
2022/07/07 08:27:04;;;;;;;4.23;2.60;;;19.30;1.00;;;;;;5043170;28;20184;-59
2022/07/07 08:29:30;;;;;;;2.90;2.70;;;19.20;1.00;;;;;;5031434;28;20188;-60
2022/07/07 08:31:56;;;;;;;3.57;2.80;;;19.20;1.00;;;;;;5031520;28;20949;-60
2022/07/07 08:34:23;;;;;;;7.30;3.30;;;19.10;1.00;;;;;;5033828;28;20469;-60
2022/07/07 08:36:49;;;;;;;3.47;3.17;;;19.10;1.00;;;;;;5049188;28;20212;-60
2022/07/07 08:39:14;;;;;;;3.07;2.87;;;19.00;1.00;;;;;;5051045;28;20464;-59
2022/07/07 08:41:42;;;;;;;2.87;2.63;;;19.00;1.00;;;;;;5035223;28;20533;-60
2022/07/07 08:44:08;;;;;;;7.37;5.27;;;18.80;1.00;;;;;;5030978;28;20189;-59
2022/07/07 08:46:34;;;;;;;4.27;3.50;;;18.60;1.00;;;;;;5031216;28;20427;-58
2022/07/07 08:49:00;;;;;;;4.83;3.13;;;18.40;1.00;;;;;;5037310;28;20441;-59
2022/07/07 08:51:26;;;;;;;3.03;2.83;;;18.40;1.00;;;;;;5050754;28;20630;-60
2022/07/07 08:53:52;;;;;;;3.50;3.20;;;18.60;1.00;;;;;;5050684;28;20180;-60
2022/07/07 08:56:18;;;;;;;3.53;3.00;;;18.90;1.00;;;;;;5050960;28;20517;-59
2022/07/07 08:58:45;;;;;;;4.87;3.10;;;19.10;1.00;;;;;;5050729;28;20481;-60
2022/07/07 09:01:10;;;;;;;4.97;3.30;;;19.20;1.00;;;;;;5051032;28;20508;-59
2022/07/07 09:03:36;;;;;;;4.87;3.33;;;19.40;1.00;;;;;;5050601;28;20924;-59
2022/07/07 09:06:04;;;;;;;4.23;3.77;;;19.30;1.00;;;;;;5050538;28;20176;-60
2022/07/07 09:08:31;;;;;;;4.17;3.70;;;19.30;1.00;;;;;;5050653;28;20434;-59
2022/07/07 09:10:57;;;;;;;4.00;3.70;;;19.40;1.00;;;;;;5041686;28;20446;-59
2022/07/07 09:13:27;;;;;;;4.10;3.70;;;19.60;1.00;;;;;;5032308;28;20442;-59
2022/07/07 09:15:58;;;;;;;3.40;3.10;;;19.30;1.00;;;;;;5031648;28;20941;-58
2022/07/07 09:18:30;;;;;;;4.10;3.50;;;19.30;1.00;;;;;;5030480;28;20471;-60
2022/07/07 09:20:56;;;;;;;4.43;4.03;;;19.40;1.00;;;;;;5030202;28;20441;-58
2022/07/07 09:23:22;;;;;;;4.40;4.00;;;19.50;1.00;;;;;;5029589;28;20436;-60
2022/07/07 09:25:48;;;;;;;4.70;4.23;;;19.50;1.00;;;;;;5049200;28;20430;-59
2022/07/07 09:28:13;;;;;;;6.03;5.43;;;19.40;1.00;;;;;;5050120;28;20281;-59
2022/07/07 09:30:43;;;;;;;5.50;5.10;;;19.40;1.00;;;;;;5049943;28;20227;-60
2022/07/07 09:33:14;;;;;;;6.10;5.20;;;19.30;1.00;;;;;;5050002;28;20435;-59
2022/07/07 09:38:30;;;;;;;7.13;5.93;;;19.40;1.00;;;;;;5050463;28;20503;-60
2022/07/07 09:41:05;;;;;;;4.87;4.47;;;19.40;1.00;;;;;;5037798;28;20454;-60
2022/07/07 09:43:34;;;;;;;5.20;4.80;;;19.50;1.00;;;;;;5030661;28;20431;-59
2022/07/07 09:46:22;;;;;;;5.77;5.00;;;19.60;1.00;;;;;;5030160;28;20473;-60
2022/07/07 09:48:57;;;;;;;6.17;5.67;;;19.50;1.00;;;;;;5030293;28;20518;-59
2022/07/07 09:51:26;;;;;;;5.93;5.40;;;19.20;1.00;;;;;;5030130;28;20439;-59
2022/07/07 09:53:58;;;;;;;6.37;5.77;;;18.80;1.00;;;;;;5029794;28;20509;-59
2022/07/07 09:56:48;;;;;;;6.10;5.53;;;18.80;1.00;;;;;;5035512;28;20518;-59
2022/07/07 09:59:16;;;;;;;5.87;5.47;;;18.80;1.00;;;;;;5049563;28;20470;-60
2022/07/07 10:01:45;;;;;;;6.10;5.03;;;18.70;1.00;;;;;;5049801;28;20427;-58
2022/07/07 10:04:20;;;;;;;5.13;4.70;;;18.80;1.00;;;;;;5050115;28;20461;-59
2022/07/07 10:06:45;;;;;;;4.50;4.20;;;18.50;1.00;;;;;;5049685;28;20489;-59
2022/07/07 10:09:19;;;;;;;4.83;4.30;;;18.20;1.00;;;;;;5049597;28;20438;-60
2022/07/07 10:11:49;;;;;;;4.77;4.37;;;18.00;1.00;;;;;;5033919;28;20696;-59
2022/07/07 10:14:21;;;;;;;4.83;4.43;;;18.10;1.00;;;;;;5025932;28;20440;-58
2022/07/07 10:16:49;;;;;;;4.50;4.10;;;18.30;1.00;;;;;;5030455;28;20497;-58
2022/07/07 10:19:18;;;;;;;7.07;4.83;;;18.70;1.00;;;;;;5025730;28;20481;-59
2022/07/07 10:21:47;;;;;;;4.10;3.80;;;18.90;1.00;;;;;;5029760;28;20509;-59
2022/07/07 10:24:15;;;;;;;4.47;4.13;;;18.80;1.00;;;;;;5029766;28;20431;-58
2022/07/07 10:26:53;;;;;;;3.87;3.57;;;18.70;1.00;;;;;;5044811;28;20492;-59
2022/07/07 10:29:40;;;;;;;4.40;4.10;;;18.60;1.00;;;;;;5049928;28;20438;-60
2022/07/07 10:32:08;;;;;;;4.50;4.20;;;18.60;1.00;;;;;;5048690;28;20481;-58
2022/07/07 10:34:36;;;;;;;4.53;4.17;;;18.70;1.00;;;;;;5050547;28;21175;-59
2022/07/07 10:37:11;;;;;;;5.30;3.23;;;18.80;1.00;;;;;;5053259;28;20442;-58
2022/07/07 10:39:42;;;;;;;3.30;3.10;;;19.10;1.00;;;;;;5053587;28;20938;-59
2022/07/07 10:42:16;;;;;;;3.43;2.87;;;19.20;1.00;;;;;;5051517;28;20500;-59
2022/07/07 10:44:50;;;;;;;2.70;2.50;;;19.20;1.00;;;;;;5053371;28;20838;-59
2022/07/07 10:47:21;;;;;;;2.70;2.50;;;19.40;1.00;;;;;;5048796;28;20447;-59
2022/07/07 10:49:56;;;;;;;2.80;2.60;;;19.50;1.00;;;;;;5037154;28;20832;-59
2022/07/07 10:52:24;;;;;;;2.90;2.57;;;19.60;1.00;;;;;;5033180;28;20510;-59
2022/07/07 10:54:55;;;;;;;2.30;2.20;;;19.80;1.00;;;;;;5040198;28;20900;-59
2022/07/07 10:57:22;;;;;;;2.80;2.60;;;19.50;1.00;;;;;;5034020;28;20463;-59
2022/07/07 11:00:09;;;;;;;3.07;2.87;;;19.20;1.00;;;;;;5047675;28;20761;-59
2022/07/07 11:02:49;;;;;;;3.17;2.97;;;18.90;1.00;;;;;;5053047;28;20462;-59
2022/07/07 11:05:14;;;;;;;2.73;2.53;;;18.80;1.00;;;;;;5052403;28;20785;-58
2022/07/07 11:07:44;;;;;;;3.43;3.00;;;19.00;1.00;;;;;;5052931;28;20438;-59
2022/07/07 11:10:13;;;;;;;6.60;3.27;;;18.60;1.00;;;;;;5052561;28;20219;-59
2022/07/07 11:12:47;;;;;;;3.73;3.43;;;19.30;1.00;;;;;;5053177;28;20445;-58
2022/07/07 11:15:20;;;;;;;3.50;3.20;;;19.20;1.00;;;;;;5052434;28;20488;-60
2022/07/07 11:18:07;;;;;;;3.40;3.20;;;19.30;1.00;;;;;;5048368;28;20519;-60
2022/07/07 11:20:33;;;;;;;4.00;3.70;;;19.50;1.00;;;;;;5032037;28;20475;-60
2022/07/07 11:23:10;;;;;;;6.97;6.27;;;19.30;1.00;;;;;;5032595;28;21090;-59
2022/07/07 11:25:38;;;;;;;4.80;4.40;;;19.50;1.00;;;;;;5032406;28;20646;-59
2022/07/07 11:28:05;;;;;;;4.43;4.00;;;19.50;1.00;;;;;;5034306;28;20432;-60
2022/07/07 11:30:31;;;;;;;4.03;3.63;;;19.40;1.00;;;;;;5032420;28;20463;-59
2022/07/07 11:32:58;;;;;;;3.80;3.50;;;20.20;1.00;;;;;;5032932;28;20449;-60
2022/07/07 11:35:27;;;;;;;4.20;3.63;;;19.50;1.00;;;;;;5032248;28;20868;-60
2022/07/07 11:37:53;;;;;;;4.50;4.10;;;19.70;1.00;;;;;;5033097;28;20459;-59
2022/07/07 11:40:19;;;;;;;5.80;3.80;;;19.40;1.00;;;;;;5032098;28;20444;-59
2022/07/07 11:42:44;;;;;;;4.17;3.87;;;19.10;1.00;;;;;;5032122;28;20180;-59
2022/07/07 11:45:25;;;;;;;4.37;4.07;;;19.10;1.00;;;;;;5032114;28;20654;-59
2022/07/07 11:47:56;;;;;;;4.27;3.97;;;19.20;1.00;;;;;;5031453;28;20208;-59
2022/07/07 11:50:22;;;;;;;4.07;3.63;;;19.60;1.00;;;;;;5032619;28;20936;-59
2022/07/07 11:52:50;;;;;;;3.57;3.07;;;20.10;1.00;;;;;;5031960;28;20623;-60
2022/07/07 11:55:18;;;;;;;3.80;3.50;;;20.20;1.00;;;;;;5032347;28;20880;-59
2022/07/07 11:57:52;;;;;;;3.10;2.90;;;20.00;1.00;;;;;;5030766;28;20474;-59
2022/07/07 12:00:20;;;;;;;3.97;3.60;;;20.00;1.00;;;;;;5032243;28;20972;-58
2022/07/07 12:02:47;;;;;;;3.30;3.00;;;20.30;1.00;;;;;;5031754;28;20874;-58
2022/07/07 12:05:19;;;;;;;3.60;3.30;;;20.60;1.00;;;;;;5032048;28;20519;-59
2022/07/07 12:08:03;;;;;;;4.40;3.10;;;20.80;1.00;;;;;;5033700;28;21056;-59
2022/07/07 12:10:38;;;;;;;3.53;3.10;;;21.00;1.00;;;;;;5052117;28;20434;-59
2022/07/07 12:13:11;;;;;;;3.33;3.13;;;21.20;1.00;;;;;;5025517;28;20434;-59
2022/07/07 12:15:53;;;;;;;3.67;3.37;;;21.20;1.00;;;;;;5031537;28;20428;-59
2022/07/07 12:18:32;;;;;;;3.40;3.20;;;21.00;1.00;;;;;;5031475;28;20459;-59
2022/07/07 12:21:10;;;;;;;3.80;3.40;;;20.60;1.00;;;;;;5031288;28;20446;-59
2022/07/07 12:23:42;;;;;;;5.00;3.60;;;20.60;1.00;;;;;;5047040;28;20430;-59
2022/07/07 12:26:14;;;;;;;4.83;2.73;;;20.60;1.00;;;;;;5051179;28;20960;-59
2022/07/07 12:28:41;;;;;;;3.70;3.40;;;20.70;1.00;;;;;;5051218;28;20846;-59
2022/07/07 12:31:08;;;;;;;3.30;3.10;;;20.70;1.00;;;;;;5050895;28;20971;-60
2022/07/07 12:33:38;;;;;;;4.20;3.67;;;20.50;1.00;;;;;;5036446;28;20446;-59
2022/07/07 12:36:11;;;;;;;3.70;3.40;;;20.60;1.00;;;;;;5031618;28;20455;-59
2022/07/07 12:38:46;;;;;;;3.70;3.40;;;20.30;1.00;;;;;;5027792;28;20474;-59
2022/07/07 12:41:27;;;;;;;4.00;3.70;;;20.10;1.00;;;;;;5030935;28;20438;-60
2022/07/07 12:43:54;;;;;;;3.73;3.30;;;20.00;1.00;;;;;;5030895;28;20835;-58
2022/07/07 12:46:20;;;;;;;4.50;4.20;;;19.80;1.00;;;;;;5031234;28;20485;-60
2022/07/07 12:48:52;;;;;;;3.97;3.67;;;19.60;1.00;;;;;;5030862;28;21156;-59
2022/07/07 12:51:25;;;;;;;4.63;4.30;;;19.40;1.00;;;;;;5030598;28;20504;-59
2022/07/07 12:53:55;;;;;;;3.80;3.60;;;19.50;1.00;;;;;;5030813;28;20497;-59
2022/07/07 12:56:21;;;;;;;3.80;3.50;;;19.50;1.00;;;;;;5051011;28;21018;-60
2022/07/07 12:58:53;;;;;;;4.70;4.30;;;19.50;1.00;;;;;;5050771;28;20494;-60
2022/07/07 13:01:27;;;;;;;3.80;3.50;;;19.60;1.00;;;;;;5049305;28;20199;-59
2022/07/07 13:03:55;;;;;;;5.07;4.67;;;19.70;1.00;;;;;;5048828;28;20434;-60